Time;durP1;ratioP1;P1;durP2;ratioP2;P2;SDS_P1;SDS_P2;PMS_P1;PMS_P2;Temp;Humidity;BMP_temperature;BMP_pressure;BME280_temperature;BME280_humidity;BME280_pressure;Samples;Min_cycle;Max_cycle;Signal;HPM_P1;HPM_P2
2022/04/26 03:38:23;;;;;;;6.10;5.47;;;19.40;47.40;;;;;;5012539;28;20232;-71
2022/04/26 03:40:50;;;;;;;7.43;5.60;;;19.40;47.40;;;;;;5012770;28;20291;-71
2022/04/26 03:43:17;;;;;;;5.97;5.25;;;19.40;47.30;;;;;;5013832;28;20272;-71
2022/04/26 03:45:44;;;;;;;5.68;4.75;;;19.40;47.40;;;;;;5012294;28;20204;-71
2022/04/26 03:48:11;;;;;;;6.50;5.22;;;19.50;47.40;;;;;;5012334;28;20704;-71
2022/04/26 03:50:39;;;;;;;6.72;5.10;;;19.50;47.40;;;;;;5015842;28;20201;-71
2022/04/26 03:53:06;;;;;;;7.13;5.45;;;19.50;47.30;;;;;;5017066;28;20193;-71
2022/04/26 03:55:34;;;;;;;7.65;5.68;;;19.50;47.20;;;;;;5015619;28;20662;-71
2022/04/26 03:58:01;;;;;;;6.72;5.22;;;19.50;47.20;;;;;;5015504;28;20651;-71
2022/04/26 04:00:27;;;;;;;8.45;5.55;;;19.50;47.10;;;;;;5015582;28;20597;-71
2022/04/26 04:02:55;;;;;;;7.28;5.30;;;19.50;47.10;;;;;;5015988;28;20201;-71
2022/04/26 04:05:23;;;;;;;10.70;5.70;;;19.50;47.10;;;;;;5031841;28;20200;-71
2022/04/26 04:07:51;;;;;;;6.25;5.43;;;19.50;47.00;;;;;;5015812;28;20662;-71
2022/04/26 04:10:19;;;;;;;6.78;5.57;;;19.50;47.00;;;;;;5031748;28;20547;-71
2022/04/26 04:12:46;;;;;;;5.75;4.82;;;19.50;47.00;;;;;;5032386;28;20204;-71
2022/04/26 04:15:13;;;;;;;6.22;5.00;;;19.50;47.10;;;;;;5015554;28;20614;-71
2022/04/26 04:17:39;;;;;;;6.13;5.35;;;19.50;46.90;;;;;;5016606;28;20189;-71
2022/04/26 04:20:08;;;;;;;6.68;5.75;;;19.50;46.90;;;;;;5015345;28;20251;-71
2022/04/26 04:22:35;;;;;;;6.75;5.30;;;19.50;47.00;;;;;;5016340;28;20280;-71
2022/04/26 04:25:04;;;;;;;7.53;6.25;;;19.50;46.90;;;;;;5031559;28;20204;-71
2022/04/26 04:27:32;;;;;;;6.97;5.45;;;19.50;47.00;;;;;;5016231;28;20211;-71
2022/04/26 04:30:02;;;;;;;8.55;6.30;;;19.50;46.90;;;;;;5031382;28;20220;-71
2022/04/26 04:32:29;;;;;;;6.70;5.20;;;19.50;46.90;;;;;;5016264;28;20239;-71
2022/04/26 04:34:55;;;;;;;6.07;5.22;;;19.60;46.90;;;;;;5014986;28;20204;-71
2022/04/26 04:37:23;;;;;;;7.22;6.05;;;19.50;46.90;;;;;;5014520;28;20196;-72
2022/04/26 04:39:50;;;;;;;6.55;5.40;;;19.60;46.90;;;;;;5014472;28;20217;-72
2022/04/26 04:42:18;;;;;;;6.25;5.20;;;19.60;47.00;;;;;;5143605;23;20259;-70
2022/04/26 04:44:45;;;;;;;6.10;5.50;;;19.60;47.00;;;;;;5014815;28;20201;-73
2022/04/26 04:47:12;;;;;;;6.43;5.32;;;19.60;47.30;;;;;;5014856;28;20239;-73
2022/04/26 04:49:39;;;;;;;7.03;5.53;;;19.60;47.30;;;;;;5033385;28;20577;-73
2022/04/26 04:52:07;;;;;;;6.82;5.60;;;19.60;47.30;;;;;;5034648;28;20196;-73
2022/04/26 04:54:35;;;;;;;6.85;5.80;;;19.60;47.40;;;;;;5034228;28;20669;-73
2022/04/26 04:57:04;;;;;;;6.50;5.90;;;19.60;47.50;;;;;;5034795;28;20731;-73
2022/04/26 04:59:32;;;;;;;7.35;5.72;;;19.60;47.50;;;;;;5033676;28;20705;-72
2022/04/26 05:02:00;;;;;;;6.30;5.47;;;19.70;47.70;;;;;;5034861;28;20250;-73
2022/04/26 05:04:27;;;;;;;6.32;5.72;;;19.70;47.60;;;;;;5035266;28;20206;-73
2022/04/26 05:06:55;;;;;;;6.75;5.45;;;19.70;47.60;;;;;;5038487;28;20197;-73
2022/04/26 05:09:22;;;;;;;6.72;5.35;;;19.70;47.80;;;;;;5034950;28;20232;-72
2022/04/26 05:11:50;;;;;;;7.05;5.82;;;19.70;48.30;;;;;;5034927;28;20196;-70
2022/04/26 05:14:17;;;;;;;6.75;4.93;;;19.70;47.90;;;;;;5034915;28;20631;-70
2022/04/26 05:16:46;;;;;;;5.97;4.75;;;19.70;48.00;;;;;;5034535;28;20204;-71
2022/04/26 05:19:13;;;;;;;6.63;5.47;;;19.70;47.80;;;;;;5034658;28;20220;-71
2022/04/26 05:21:40;;;;;;;7.70;5.25;;;19.80;47.70;;;;;;5036824;28;20196;-70
2022/04/26 05:26:54;;;;;;;5.00;4.50;;;19.80;47.60;;;;;;5020903;28;20620;-70
2022/04/26 05:29:21;;;;;;;6.40;5.00;;;19.80;47.50;;;;;;5035178;28;20593;-70
2022/04/26 05:31:49;;;;;;;5.75;5.15;;;19.80;47.40;;;;;;5036733;28;20199;-70
2022/04/26 05:34:16;;;;;;;6.00;4.80;;;19.80;47.40;;;;;;5039285;28;20215;-70
2022/04/26 05:36:43;;;;;;;5.30;4.53;;;19.80;47.30;;;;;;5040912;28;20563;-70
2022/04/26 05:39:10;;;;;;;5.43;4.35;;;19.80;47.20;;;;;;5034497;28;20219;-70
2022/04/26 05:41:37;;;;;;;5.88;5.07;;;19.90;47.10;;;;;;5034702;28;20196;-70
2022/04/26 05:44:05;;;;;;;6.22;5.00;;;19.80;47.70;;;;;;5033416;28;20196;-70
2022/04/26 05:46:32;;;;;;;5.72;5.13;;;19.90;47.20;;;;;;5033211;28;20206;-71
2022/04/26 05:49:00;;;;;;;6.72;5.28;;;19.90;47.20;;;;;;5034123;28;20218;-71
2022/04/26 05:51:28;;;;;;;6.00;5.20;;;19.90;47.10;;;;;;5077215;23;20221;-73
2022/04/26 05:53:55;;;;;;;6.55;4.93;;;19.90;46.90;;;;;;5014674;28;20189;-73
2022/04/26 05:56:22;;;;;;;5.43;4.90;;;19.90;46.90;;;;;;5013379;28;20720;-73
2022/04/26 05:58:49;;;;;;;5.63;4.72;;;19.90;46.90;;;;;;5013241;28;20689;-73
2022/04/26 06:01:17;;;;;;;5.90;4.75;;;19.90;46.80;;;;;;4996886;28;20193;-73
2022/04/26 06:03:44;;;;;;;5.97;5.00;;;19.90;46.80;;;;;;4996535;28;20208;-73
2022/04/26 06:06:13;;;;;;;7.93;5.40;;;20.00;46.90;;;;;;5014475;28;20185;-73
2022/04/26 06:08:40;;;;;;;5.55;4.95;;;19.90;46.90;;;;;;4996501;28;20216;-72
2022/04/26 06:11:07;;;;;;;5.22;4.72;;;20.00;47.00;;;;;;4996090;28;20193;-73
2022/04/26 06:13:34;;;;;;;6.32;5.43;;;19.90;47.00;;;;;;4996593;28;20634;-73
2022/04/26 06:16:03;;;;;;;6.18;5.57;;;20.00;47.00;;;;;;4996574;28;20238;-73
2022/04/26 06:18:30;;;;;;;6.00;5.18;;;19.90;46.90;;;;;;5014239;28;20210;-74
2022/04/26 06:20:57;;;;;;;5.07;4.55;;;20.00;47.00;;;;;;5013165;28;20192;-73
2022/04/26 06:23:26;;;;;;;5.80;4.57;;;20.00;46.90;;;;;;4996787;28;20200;-73
2022/04/26 06:25:53;;;;;;;7.18;4.80;;;20.00;46.80;;;;;;5014069;28;20669;-73
2022/04/26 06:28:20;;;;;;;5.30;4.80;;;20.00;46.70;;;;;;5012830;28;20212;-71
2022/04/26 06:30:47;;;;;;;5.78;5.20;;;20.00;46.50;;;;;;5013019;28;20384;-71
2022/04/26 06:33:14;;;;;;;5.57;4.60;;;20.10;46.60;;;;;;4996793;28;20197;-71
2022/04/26 06:35:41;;;;;;;5.03;4.03;;;20.10;46.60;;;;;;5016463;28;20213;-70
2022/04/26 06:38:09;;;;;;;5.90;4.72;;;20.10;46.40;;;;;;4997796;28;20311;-70
2022/04/26 06:40:37;;;;;;;5.03;4.63;;;20.10;46.40;;;;;;4996673;28;20657;-70
2022/04/26 06:43:04;;;;;;;5.38;4.88;;;20.10;46.50;;;;;;5014930;28;20192;-70
2022/04/26 06:45:31;;;;;;;5.75;5.18;;;20.10;46.40;;;;;;4996400;28;20651;-71
2022/04/26 06:48:00;;;;;;;5.78;4.72;;;20.10;46.30;;;;;;5013066;28;20816;-71
2022/04/26 06:50:27;;;;;;;5.43;4.35;;;20.10;46.20;;;;;;4996531;28;20223;-71
2022/04/26 06:52:54;;;;;;;5.13;4.65;;;20.10;46.20;;;;;;4996651;28;20219;-71
2022/04/26 06:55:21;;;;;;;5.63;4.00;;;20.10;46.10;;;;;;5012866;28;20220;-70
2022/04/26 06:57:50;;;;;;;4.97;4.40;;;20.10;46.00;;;;;;4996529;28;20575;-71
2022/04/26 07:00:17;;;;;;;5.32;4.78;;;20.10;46.10;;;;;;5013315;28;20662;-71
2022/04/26 07:02:45;;;;;;;4.88;4.28;;;20.10;46.20;;;;;;5000138;28;20197;-71
2022/04/26 07:05:12;;;;;;;5.10;4.10;;;20.10;46.20;;;;;;5019466;28;20193;-70
2022/04/26 07:07:39;;;;;;;7.13;5.15;;;20.10;46.40;;;;;;5017236;28;20196;-71
2022/04/26 07:10:08;;;;;;;6.82;4.63;;;20.10;46.50;;;;;;5014047;28;20215;-70
2022/04/26 07:12:35;;;;;;;8.00;5.07;;;20.10;46.60;;;;;;5012761;28;20207;-71
2022/04/26 07:15:05;;;;;;;9.93;5.25;;;20.10;46.80;;;;;;4996649;28;20204;-71
2022/04/26 07:17:31;;;;;;;7.72;5.03;;;20.10;47.00;;;;;;4996140;28;20658;-72
2022/04/26 07:19:59;;;;;;;8.40;5.45;;;20.10;47.00;;;;;;4995900;28;20197;-71
2022/04/26 07:22:26;;;;;;;7.47;4.90;;;20.10;47.20;;;;;;4996449;28;20203;-71
2022/04/26 07:24:53;;;;;;;7.93;4.90;;;20.10;47.20;;;;;;4999591;28;20196;-70
2022/04/26 07:27:20;;;;;;;7.20;4.88;;;20.10;47.20;;;;;;5017506;28;20305;-71
2022/04/26 07:29:49;;;;;;;6.65;4.75;;;20.10;47.70;;;;;;4999687;28;20670;-73
2022/04/26 07:32:17;;;;;;;6.40;5.05;;;20.10;47.00;;;;;;5000230;28;20196;-73
2022/04/26 07:34:45;;;;;;;6.45;5.32;;;20.10;47.00;;;;;;5017031;28;20203;-73
2022/04/26 07:37:12;;;;;;;6.10;4.43;;;20.20;46.80;;;;;;5015477;28;20196;-73
2022/04/26 07:39:41;;;;;;;5.43;4.93;;;20.20;46.70;;;;;;4999045;28;20686;-73
2022/04/26 07:42:09;;;;;;;5.35;4.85;;;20.30;46.60;;;;;;5017280;28;20193;-73
2022/04/26 07:44:39;;;;;;;7.13;4.95;;;20.30;46.40;;;;;;5016629;28;20537;-73
2022/04/26 07:47:07;;;;;;;5.78;4.88;;;20.30;47.90;;;;;;4998907;28;20658;-73
2022/04/26 07:49:35;;;;;;;6.07;5.00;;;20.40;50.60;;;;;;4998901;28;20319;-73
2022/04/26 07:52:03;;;;;;;5.20;4.65;;;20.40;50.40;;;;;;4998967;28;20304;-73
2022/04/26 07:54:29;;;;;;;4.72;4.32;;;20.50;50.20;;;;;;4998970;28;20197;-73
2022/04/26 07:56:57;;;;;;;5.20;4.60;;;20.50;49.90;;;;;;4999085;28;20247;-72
2022/04/26 07:59:25;;;;;;;4.80;4.30;;;20.60;49.50;;;;;;5016340;28;20213;-73
2022/04/26 08:01:52;;;;;;;5.25;4.15;;;20.60;49.30;;;;;;4998990;28;20255;-73
2022/04/26 08:04:19;;;;;;;4.43;4.00;;;20.60;48.90;;;;;;5016525;28;20622;-73
2022/04/26 08:06:48;;;;;;;4.65;4.25;;;20.70;48.60;;;;;;4998858;28;20212;-73
2022/04/26 08:09:15;;;;;;;6.35;4.38;;;20.70;48.40;;;;;;5015063;28;20234;-73
2022/04/26 08:11:42;;;;;;;4.35;3.95;;;20.70;48.90;;;;;;5015618;28;20287;-73
2022/04/26 08:14:10;;;;;;;4.18;3.78;;;20.70;48.10;;;;;;4999407;28;20211;-73
2022/04/26 08:16:37;;;;;;;4.35;3.95;;;20.70;47.80;;;;;;5016102;28;20185;-73
2022/04/26 08:19:04;;;;;;;4.95;4.07;;;20.70;47.60;;;;;;5016280;28;20213;-73
2022/04/26 08:21:31;;;;;;;3.42;3.13;;;20.70;47.50;;;;;;5016596;28;20192;-73
2022/04/26 08:29:28;;;;;;;4.53;3.90;;;20.70;46.80;;;;;;5015984;28;20209;-73
2022/04/26 08:31:55;;;;;;;3.90;3.60;;;20.70;46.80;;;;;;4998788;28;20205;-73
2022/04/26 08:34:22;;;;;;;3.90;3.60;;;20.70;46.70;;;;;;4997747;28;20221;-73
2022/04/26 08:36:50;;;;;;;4.55;3.83;;;20.70;46.70;;;;;;4998245;28;20603;-73
2022/04/26 08:39:20;;;;;;;3.92;3.45;;;20.70;46.70;;;;;;5015691;28;20224;-73
2022/04/26 08:41:47;;;;;;;3.72;3.20;;;20.80;46.50;;;;;;5014966;28;20287;-73
2022/04/26 08:44:14;;;;;;;3.63;3.33;;;20.80;46.40;;;;;;5014252;28;20212;-73
2022/04/26 08:52:10;;;;;;;3.70;3.40;;;21.00;46.10;;;;;;4998206;28;20196;-73
2022/04/26 08:54:38;;;;;;;3.60;3.30;;;21.10;46.20;;;;;;5015371;28;20200;-73
2022/04/26 08:57:06;;;;;;;4.35;3.35;;;21.20;45.60;;;;;;5014057;28;20205;-73
2022/04/26 08:59:33;;;;;;;3.78;3.38;;;21.30;45.40;;;;;;4997697;28;20256;-73
2022/04/26 09:02:18;;;;;;;3.55;3.08;;;21.30;45.30;;;;;;5015360;28;20256;-73
2022/04/26 09:04:45;;;;;;;3.70;3.40;;;21.50;45.20;;;;;;4997719;28;20204;-73
2022/04/26 09:07:12;;;;;;;3.88;3.40;;;21.50;44.90;;;;;;4997613;28;20196;-70
2022/04/26 09:09:41;;;;;;;4.05;3.53;;;21.50;45.20;;;;;;4997361;28;20567;-71
2022/04/26 09:12:12;;;;;;;4.18;3.45;;;21.50;45.00;;;;;;5013875;28;20201;-71
2022/04/26 09:14:47;;;;;;;4.60;3.40;;;21.60;45.00;;;;;;5015156;28;20173;-71
2022/04/26 09:17:16;;;;;;;3.53;2.90;;;21.60;45.00;;;;;;5015300;28;20195;-70
2022/04/26 09:19:44;;;;;;;3.33;2.85;;;21.60;44.70;;;;;;4997326;28;20213;-71
2022/04/26 09:22:16;;;;;;;3.35;3.10;;;21.60;44.80;;;;;;5014893;28;20189;-69
2022/04/26 09:24:58;;;;;;;4.15;3.35;;;21.60;44.60;;;;;;5015145;28;20181;-71
2022/04/26 09:27:25;;;;;;;3.42;3.13;;;21.60;44.50;;;;;;4997257;28;20207;-71
2022/04/26 09:29:52;;;;;;;3.30;2.97;;;21.60;45.20;;;;;;5014648;28;20213;-71
2022/04/26 09:32:19;;;;;;;3.92;3.20;;;21.60;44.50;;;;;;4997116;28;20192;-70
2022/04/26 09:34:46;;;;;;;3.78;3.38;;;21.60;44.50;;;;;;4997057;28;20211;-71
2022/04/26 09:37:14;;;;;;;3.42;3.13;;;21.60;45.00;;;;;;5014603;28;20256;-71
2022/04/26 09:39:41;;;;;;;3.67;3.30;;;21.70;44.50;;;;;;4996971;28;20316;-71
2022/04/26 09:42:10;;;;;;;3.22;2.92;;;21.70;44.40;;;;;;5013196;28;20276;-71
2022/04/26 09:44:41;;;;;;;3.85;3.03;;;21.70;44.30;;;;;;5013274;28;20208;-71
2022/04/26 09:47:08;;;;;;;3.38;3.08;;;21.60;44.00;;;;;;4996293;28;20201;-72
2022/04/26 09:49:39;;;;;;;3.33;2.92;;;21.70;44.20;;;;;;5014943;28;20208;-71
2022/04/26 09:52:08;;;;;;;3.50;3.03;;;21.60;44.10;;;;;;4996981;28;20244;-71
2022/04/26 09:54:37;;;;;;;3.17;2.90;;;21.60;44.10;;;;;;4997182;28;20240;-71
2022/04/26 09:57:06;;;;;;;3.00;2.70;;;21.70;44.10;;;;;;5014662;28;20736;-71
2022/04/26 09:59:37;;;;;;;3.28;2.90;;;21.70;44.70;;;;;;5014344;28;20228;-71
2022/04/26 10:02:07;;;;;;;3.15;2.85;;;21.80;44.10;;;;;;4997627;28;20544;-71
2022/04/26 10:04:34;;;;;;;3.28;2.97;;;21.80;44.10;;;;;;5014609;28;20219;-71
2022/04/26 10:07:03;;;;;;;3.30;3.00;;;21.80;43.60;;;;;;4996886;28;20242;-71
2022/04/26 10:09:30;;;;;;;3.83;3.53;;;22.00;43.60;;;;;;5012946;28;20220;-71
2022/04/26 10:11:58;;;;;;;3.60;2.97;;;22.00;43.50;;;;;;4997054;28;20221;-71
2022/04/26 10:14:25;;;;;;;3.55;3.25;;;22.10;43.40;;;;;;5014460;28;20271;-71
2022/04/26 10:16:53;;;;;;;2.90;2.70;;;22.20;43.40;;;;;;4997090;28;20247;-71
2022/04/26 10:19:22;;;;;;;3.35;3.10;;;22.30;43.10;;;;;;4997682;28;20322;-71
2022/04/26 10:21:50;;;;;;;3.63;2.95;;;22.40;42.90;;;;;;5014783;28;20585;-71
2022/04/26 10:24:21;;;;;;;2.90;2.60;;;22.40;42.20;;;;;;4997138;28;20748;-71
2022/04/26 10:26:48;;;;;;;3.00;2.70;;;22.50;42.40;;;;;;4996717;28;20204;-71
2022/04/26 10:29:20;;;;;;;2.60;2.40;;;22.50;42.30;;;;;;5012668;28;20365;-70
2022/04/26 10:31:48;;;;;;;2.80;2.60;;;22.50;42.30;;;;;;5014093;28;20569;-71
2022/04/26 10:34:20;;;;;;;2.80;2.47;;;22.60;42.30;;;;;;5012832;28;20204;-71
2022/04/26 10:36:48;;;;;;;3.20;2.70;;;22.50;41.80;;;;;;4996613;28;20200;-71
2022/04/26 10:39:31;;;;;;;3.13;2.67;;;22.60;41.80;;;;;;4996262;28;20220;-71
2022/04/26 10:41:59;;;;;;;2.83;2.55;;;22.60;41.80;;;;;;5013758;28;20189;-71
2022/04/26 10:44:32;;;;;;;3.10;2.80;;;22.70;41.90;;;;;;4996296;28;20298;-71
2022/04/26 10:47:36;;;;;;;2.72;2.53;;;22.70;41.60;;;;;;5014282;28;20197;-71
2022/04/26 10:50:09;;;;;;;3.03;2.55;;;22.70;41.60;;;;;;4996684;28;20204;-71
2022/04/26 10:52:41;;;;;;;2.65;2.45;;;22.70;41.60;;;;;;5013196;28;20204;-71
2022/04/26 10:55:19;;;;;;;3.15;2.92;;;22.70;41.50;;;;;;5012392;28;20255;-71
2022/04/26 10:57:48;;;;;;;3.17;2.88;;;22.80;41.40;;;;;;5014957;28;20180;-71
2022/04/26 11:00:17;;;;;;;2.60;2.40;;;22.80;41.60;;;;;;5016377;28;20239;-71
2022/04/26 11:02:44;;;;;;;2.60;2.40;;;22.80;41.20;;;;;;5017455;28;20280;-71
2022/04/26 11:05:16;;;;;;;2.20;2.10;;;22.90;41.20;;;;;;5000105;28;20197;-71
2022/04/26 11:07:43;;;;;;;3.17;2.58;;;22.90;41.20;;;;;;5016875;28;20207;-71
2022/04/26 11:10:11;;;;;;;2.47;2.28;;;22.90;41.90;;;;;;5016140;28;20216;-71
2022/04/26 11:12:39;;;;;;;2.75;2.55;;;22.90;41.10;;;;;;5016384;28;20293;-71
2022/04/26 11:15:08;;;;;;;2.67;2.47;;;22.90;40.90;;;;;;5017506;28;20280;-71
2022/04/26 11:17:36;;;;;;;2.50;2.30;;;22.90;40.70;;;;;;5018888;28;20215;-71
2022/04/26 11:20:04;;;;;;;2.70;2.50;;;22.90;40.60;;;;;;5019448;28;20235;-71
2022/04/26 11:22:33;;;;;;;2.70;2.50;;;22.90;40.80;;;;;;5019821;28;20271;-71
2022/04/26 11:28:03;;;;;;;2.53;2.33;;;22.90;40.90;;;;;;4999359;28;20189;-71
2022/04/26 11:30:31;;;;;;;2.78;2.47;;;22.90;40.70;;;;;;4999510;28;20299;-71
2022/04/26 11:32:59;;;;;;;2.60;2.40;;;22.90;40.70;;;;;;4999482;28;20205;-71
2022/04/26 11:35:26;;;;;;;2.90;2.67;;;22.90;40.70;;;;;;5015816;28;20218;-71
2022/04/26 11:37:55;;;;;;;3.65;2.85;;;22.90;40.60;;;;;;5015500;28;20224;-71
2022/04/26 11:40:27;;;;;;;2.70;2.50;;;22.90;40.50;;;;;;5016625;28;20185;-71
2022/04/26 11:42:56;;;;;;;2.58;2.38;;;22.90;40.60;;;;;;5016736;28;20180;-71
2022/04/26 11:45:23;;;;;;;2.63;2.42;;;22.90;40.70;;;;;;4999113;28;20354;-71
2022/04/26 11:47:51;;;;;;;2.85;2.65;;;22.90;40.50;;;;;;4983086;28;20300;-72
2022/04/26 11:50:20;;;;;;;2.53;2.35;;;22.90;40.50;;;;;;4999021;28;20239;-71
2022/04/26 11:52:48;;;;;;;2.65;2.45;;;23.00;40.60;;;;;;5015442;28;20204;-71
2022/04/26 11:55:24;;;;;;;3.33;3.13;;;23.00;40.40;;;;;;5016777;28;20197;-71
2022/04/26 11:57:51;;;;;;;2.70;2.50;;;23.00;40.10;;;;;;5015375;28;20197;-71
2022/04/26 12:03:02;;;;;;;3.00;2.70;;;23.00;40.10;;;;;;5074483;22;20241;-72
2022/04/26 12:05:29;;;;;;;2.70;2.50;;;23.00;40.00;;;;;;4995793;28;20228;-71
2022/04/26 12:07:56;;;;;;;2.75;2.55;;;23.00;40.00;;;;;;4995820;28;20201;-71
2022/04/26 12:10:32;;;;;;;2.33;2.20;;;23.00;40.00;;;;;;4994503;28;20580;-69
2022/04/26 12:13:01;;;;;;;2.67;2.47;;;23.00;40.00;;;;;;4997021;28;20215;-71
2022/04/26 12:15:30;;;;;;;2.65;2.47;;;23.00;40.00;;;;;;4979031;28;20213;-71
2022/04/26 12:18:07;;;;;;;2.70;2.50;;;23.00;39.80;;;;;;4979079;28;20197;-71
2022/04/26 12:20:36;;;;;;;2.53;2.33;;;22.90;39.90;;;;;;4979103;28;20199;-71
2022/04/26 12:23:03;;;;;;;2.20;2.10;;;23.00;39.80;;;;;;4996255;28;20217;-71
2022/04/26 12:25:33;;;;;;;2.70;2.50;;;22.90;40.00;;;;;;4978904;28;20260;-71
2022/04/26 12:28:09;;;;;;;2.70;2.50;;;23.00;39.80;;;;;;4996282;28;20196;-71
2022/04/26 12:30:38;;;;;;;2.60;2.40;;;23.00;39.80;;;;;;4978761;28;20280;-71
2022/04/26 12:33:06;;;;;;;2.50;2.30;;;23.00;39.60;;;;;;4978548;28;20229;-71
2022/04/26 12:35:34;;;;;;;2.70;2.50;;;23.00;39.60;;;;;;4996148;28;20198;-71
2022/04/26 12:38:05;;;;;;;2.58;2.38;;;22.90;39.70;;;;;;4995995;28;20181;-71
2022/04/26 12:40:33;;;;;;;2.60;2.40;;;22.90;39.90;;;;;;4995976;28;20682;-71
2022/04/26 12:43:01;;;;;;;2.78;2.58;;;22.80;40.00;;;;;;4994661;28;20225;-71
2022/04/26 12:45:28;;;;;;;3.13;2.83;;;22.80;40.10;;;;;;4996113;28;20236;-71
2022/04/26 12:50:50;;;;;;;3.25;2.92;;;22.70;40.10;;;;;;4978337;28;20186;-71
2022/04/26 12:53:25;;;;;;;3.00;2.80;;;22.70;40.10;;;;;;4995995;28;20213;-71
2022/04/26 12:55:54;;;;;;;2.53;2.40;;;22.70;40.10;;;;;;4978177;28;20288;-71
2022/04/26 12:58:35;;;;;;;2.45;2.28;;;22.70;40.10;;;;;;4978097;28;20619;-70
2022/04/26 13:01:02;;;;;;;2.60;2.40;;;22.70;40.30;;;;;;4977856;28;20236;-71
2022/04/26 13:03:29;;;;;;;2.60;2.40;;;22.60;40.30;;;;;;4995467;28;20651;-71
2022/04/26 13:06:07;;;;;;;2.47;2.28;;;22.60;40.40;;;;;;4994014;28;20206;-71
2022/04/26 13:08:34;;;;;;;2.22;2.13;;;22.50;40.30;;;;;;4994040;28;20643;-71
2022/04/26 13:11:04;;;;;;;2.30;2.10;;;22.50;40.40;;;;;;4977698;28;20223;-70
2022/04/26 13:13:31;;;;;;;2.40;2.20;;;22.50;40.60;;;;;;4977719;28;20291;-71
2022/04/26 13:15:58;;;;;;;2.75;2.10;;;22.40;41.20;;;;;;4977805;28;20272;-70
2022/04/26 13:18:25;;;;;;;2.40;2.10;;;22.40;40.60;;;;;;4995058;28;20192;-71
2022/04/26 13:20:54;;;;;;;2.45;2.25;;;22.40;40.90;;;;;;4995203;28;20217;-71
2022/04/26 13:23:21;;;;;;;2.30;2.10;;;22.30;40.90;;;;;;4995009;28;20624;-72
2022/04/26 13:25:48;;;;;;;2.00;1.90;;;22.30;41.00;;;;;;4994121;28;20197;-71
2022/04/26 13:28:17;;;;;;;2.45;2.25;;;22.30;41.20;;;;;;4978073;28;20224;-71
2022/04/26 13:30:44;;;;;;;2.03;1.92;;;22.20;41.20;;;;;;4994134;28;20687;-71
2022/04/26 13:33:11;;;;;;;2.22;2.03;;;22.20;41.20;;;;;;4994868;28;20279;-71
2022/04/26 13:35:38;;;;;;;2.35;2.17;;;22.20;41.50;;;;;;4977391;28;20582;-71
2022/04/26 13:38:09;;;;;;;2.20;2.10;;;22.20;41.50;;;;;;4978236;28;20228;-71
2022/04/26 13:40:37;;;;;;;2.10;2.00;;;22.20;41.30;;;;;;4977432;28;20193;-70
2022/04/26 13:43:04;;;;;;;2.40;2.05;;;22.30;41.30;;;;;;4977425;28;20221;-71
2022/04/26 13:45:33;;;;;;;2.58;2.20;;;22.40;41.00;;;;;;4977169;28;20231;-71
2022/04/26 13:48:01;;;;;;;1.98;1.88;;;22.40;40.80;;;;;;4977219;28;20201;-71
2022/04/26 13:50:29;;;;;;;2.20;2.10;;;22.40;40.50;;;;;;4977284;28;20292;-70
2022/04/26 13:52:56;;;;;;;2.25;2.15;;;22.50;40.70;;;;;;4976919;28;20240;-71
2022/04/26 13:55:26;;;;;;;1.95;1.85;;;22.50;40.50;;;;;;4994735;28;20256;-71
2022/04/26 13:57:53;;;;;;;2.13;2.00;;;22.60;40.50;;;;;;4993354;28;20193;-70
2022/04/26 14:00:21;;;;;;;2.40;2.20;;;22.60;40.30;;;;;;4976975;28;20571;-71
2022/04/26 14:02:49;;;;;;;2.10;2.00;;;22.60;40.40;;;;;;4993479;28;20229;-71
2022/04/26 14:05:17;;;;;;;2.05;1.90;;;22.60;40.20;;;;;;4976849;28;20243;-71
2022/04/26 14:07:46;;;;;;;2.10;2.00;;;22.60;40.40;;;;;;4977152;28;20210;-71
2022/04/26 14:10:13;;;;;;;1.92;1.83;;;22.60;40.70;;;;;;4977082;28;20749;-71
2022/04/26 14:12:40;;;;;;;2.05;1.95;;;22.60;40.60;;;;;;4992948;28;20686;-71
2022/04/26 14:23:26;;;;;;;2.25;2.08;;;22.60;40.70;;;;;;4994059;28;20292;-71
2022/04/26 14:25:53;;;;;;;2.03;1.92;;;22.50;40.70;;;;;;4976731;28;20683;-71
2022/04/26 14:28:20;;;;;;;1.88;1.77;;;22.60;40.70;;;;;;4976760;28;20622;-71
2022/04/26 14:30:47;;;;;;;2.10;2.00;;;22.50;40.60;;;;;;4976405;28;20569;-71
2022/04/26 14:33:15;;;;;;;2.00;1.90;;;22.60;40.50;;;;;;4993493;28;20645;-71
2022/04/26 14:35:44;;;;;;;1.90;1.80;;;22.60;40.40;;;;;;4976617;28;20197;-70
2022/04/26 14:38:11;;;;;;;2.00;1.90;;;22.50;40.40;;;;;;4976554;28;20297;-71
2022/04/26 14:40:39;;;;;;;2.00;1.90;;;22.50;40.30;;;;;;4994236;28;20196;-71
2022/04/26 14:43:07;;;;;;;2.25;1.85;;;22.50;40.20;;;;;;4976794;28;20217;-71
2022/04/26 14:45:42;;;;;;;2.20;2.10;;;22.50;40.40;;;;;;4976529;28;20205;-72
2022/04/26 14:48:10;;;;;;;2.13;1.95;;;22.50;40.40;;;;;;4976667;28;20275;-71
2022/04/26 14:50:40;;;;;;;2.03;1.92;;;22.50;40.40;;;;;;4994014;28;20224;-71
2022/04/26 14:53:07;;;;;;;2.38;2.22;;;22.50;40.20;;;;;;4976713;28;20312;-71
2022/04/26 14:55:34;;;;;;;3.42;1.98;;;22.50;40.20;;;;;;4976718;28;20205;-71
2022/04/26 14:58:01;;;;;;;2.00;1.90;;;22.40;40.10;;;;;;4993957;28;20698;-71
2022/04/26 15:00:29;;;;;;;2.05;1.95;;;22.40;40.10;;;;;;4976771;28;20201;-71
2022/04/26 15:02:56;;;;;;;2.00;1.90;;;22.40;40.10;;;;;;4992749;28;20314;-71
2022/04/26 15:05:26;;;;;;;2.20;2.10;;;22.40;40.20;;;;;;4993314;28;20765;-71
2022/04/26 15:10:39;;;;;;;2.20;2.00;;;22.30;40.50;;;;;;4994180;28;20186;-70
2022/04/26 15:18:35;;;;;;;2.35;2.00;;;22.30;40.00;;;;;;4976451;28;20280;-70
2022/04/26 15:21:02;;;;;;;2.00;1.90;;;22.20;40.20;;;;;;4993683;28;20204;-71
2022/04/26 15:23:31;;;;;;;2.10;2.00;;;22.20;40.30;;;;;;4993713;28;20216;-71
2022/04/26 15:25:58;;;;;;;2.10;2.00;;;22.20;40.40;;;;;;4992235;28;20233;-71
2022/04/26 15:28:25;;;;;;;2.10;1.90;;;22.20;40.10;;;;;;4992837;28;20205;-71
2022/04/26 15:30:52;;;;;;;1.90;1.80;;;22.20;40.20;;;;;;4995129;28;20225;-71
2022/04/26 15:33:20;;;;;;;2.00;1.90;;;22.20;40.10;;;;;;4977995;28;20713;-71
2022/04/26 15:35:47;;;;;;;2.17;2.08;;;22.20;40.30;;;;;;4976863;28;20256;-71
2022/04/26 15:38:14;;;;;;;2.13;1.92;;;22.20;40.30;;;;;;4976374;28;20197;-71
2022/04/26 15:40:43;;;;;;;1.80;1.70;;;22.20;40.20;;;;;;4993891;28;20205;-71
2022/04/26 15:43:09;;;;;;;2.20;2.00;;;22.20;40.90;;;;;;4992340;28;20252;-71
2022/04/26 15:45:37;;;;;;;2.10;2.00;;;22.10;40.40;;;;;;4979670;28;20209;-71
2022/04/26 15:48:04;;;;;;;2.00;1.90;;;22.10;40.30;;;;;;4996891;28;20189;-71
2022/04/26 15:50:31;;;;;;;2.22;2.13;;;22.10;40.40;;;;;;4979606;28;20706;-71
2022/04/26 15:52:58;;;;;;;1.90;1.80;;;22.00;40.30;;;;;;4997118;28;20300;-71
2022/04/26 15:55:25;;;;;;;1.88;1.77;;;22.00;40.40;;;;;;4979382;28;20205;-71
2022/04/26 15:57:54;;;;;;;2.20;2.00;;;22.00;40.60;;;;;;4995636;28;20228;-71
2022/04/26 16:00:21;;;;;;;2.30;2.10;;;22.00;40.80;;;;;;4979425;28;20209;-71
2022/04/26 16:02:49;;;;;;;2.25;1.90;;;21.90;40.90;;;;;;4995458;28;20225;-71
2022/04/26 16:05:16;;;;;;;2.05;1.95;;;21.90;41.20;;;;;;4979120;28;20198;-71
2022/04/26 16:07:43;;;;;;;2.55;2.25;;;21.80;41.20;;;;;;4995576;28;20216;-71
2022/04/26 16:21:12;;;;;;;2.25;2.03;;;21.80;41.90;;;;;;4987801;28;20232;-71
2022/04/26 16:23:39;;;;;;;2.35;1.90;;;21.80;41.90;;;;;;4978953;28;20225;-71
2022/04/26 16:26:06;;;;;;;1.90;1.80;;;21.80;41.90;;;;;;4995055;28;20204;-71
2022/04/26 16:28:35;;;;;;;2.17;2.00;;;21.80;41.90;;;;;;4978469;28;20229;-71
2022/04/26 16:31:03;;;;;;;2.10;2.00;;;21.80;41.90;;;;;;4996135;28;20235;-71
2022/04/26 16:33:30;;;;;;;2.20;2.00;;;21.80;41.90;;;;;;4994969;28;20229;-71
2022/04/26 16:35:57;;;;;;;2.03;1.92;;;21.80;41.90;;;;;;4994923;28;20343;-71
2022/04/26 16:38:24;;;;;;;1.90;1.80;;;21.80;41.90;;;;;;4994920;28;20194;-71
2022/04/26 16:40:51;;;;;;;1.80;1.70;;;21.80;41.90;;;;;;4994944;28;20201;-72
2022/04/26 16:43:18;;;;;;;2.00;1.90;;;21.70;41.80;;;;;;4978534;28;20227;-72
2022/04/26 16:45:47;;;;;;;1.70;1.60;;;21.70;41.90;;;;;;4978456;28;20248;-72
2022/04/26 16:48:14;;;;;;;2.17;1.98;;;21.70;41.90;;;;;;4978447;28;20251;-72
2022/04/26 16:50:41;;;;;;;1.95;1.85;;;21.60;42.50;;;;;;4978214;28;20197;-71
2022/04/26 16:53:08;;;;;;;1.90;1.80;;;21.60;42.00;;;;;;4994667;28;20233;-72
2022/04/26 16:55:35;;;;;;;1.98;1.85;;;21.60;42.10;;;;;;4993849;28;20205;-72
2022/04/26 16:58:02;;;;;;;1.88;1.77;;;21.60;42.10;;;;;;4978073;28;20207;-72
2022/04/26 17:00:29;;;;;;;2.17;2.00;;;21.60;42.10;;;;;;4978154;28;20742;-71
2022/04/26 17:02:58;;;;;;;2.00;1.90;;;21.60;42.10;;;;;;4995447;28;20268;-71
2022/04/26 17:05:27;;;;;;;2.10;2.00;;;21.60;42.10;;;;;;4994625;28;20304;-71
2022/04/26 17:07:56;;;;;;;2.10;2.00;;;21.60;42.10;;;;;;4994171;28;20233;-71
2022/04/26 17:18:45;;;;;;;1.90;1.80;;;21.50;41.90;;;;;;5035535;23;20228;-71
2022/04/26 17:21:12;;;;;;;2.00;1.90;;;21.50;42.10;;;;;;5034715;28;20216;-71
2022/04/26 17:23:40;;;;;;;2.40;2.20;;;21.50;42.10;;;;;;5026832;28;20223;-72
2022/04/26 17:26:07;;;;;;;1.80;1.70;;;21.50;42.20;;;;;;5016650;28;20528;-72
2022/04/26 17:28:34;;;;;;;2.00;1.90;;;21.50;42.10;;;;;;5016617;28;20231;-72